Lurin, Peru
Current Conditions -  °F | °C
As of 12:00 PM on Thursday 30 Oct 2014 (Local Time) from SPIM Reporting Station
Overcast Overcast  
Wind Chill: 19°   Ceiling: 1700
Heat Index: 19°   Visibility: 6mi
Dew Point: 15°   Wind: 7mph
Humidity: 78%   Direction: 300°WNW
Pressure: 29.91"   Gusts: NA
Location:  12.32°S, 76.25°W
Report Text: SPIM 301700Z 30006KT 270V330 9999 OVC017 19/15 Q1013 NOSIG RMK PP000
Loading
Personal Weather Stations






























Interactive Weather Map
Tropical Storm Tracking
New forecast layout! Learn more

10-Day Weather Forecast

Advertisements
Track Severe Weather on mobile